createdAt,value
2019-04-22T00:00:55.650Z,90.70
2019-04-22T00:03:33.937Z,90.70
2019-04-22T00:06:21.095Z,90.60
2019-04-22T00:08:49.258Z,90.80
2019-04-22T00:11:25.982Z,91.00
2019-04-22T00:13:52.034Z,91.00
2019-04-22T00:16:26.369Z,91.00
2019-04-22T00:19:11.443Z,90.80
2019-04-22T00:21:29.258Z,91.20
2019-04-22T00:23:59.570Z,91.10
2019-04-22T00:26:29.087Z,91.10
2019-04-22T00:28:59.318Z,91.30
2019-04-22T00:31:49.416Z,91.30
2019-04-22T00:34:24.178Z,91.30
2019-04-22T00:36:54.594Z,91.20
2019-04-22T00:39:26.980Z,91.30
2019-04-22T00:41:56.472Z,91.40
2019-04-22T00:44:35.469Z,91.60
2019-04-22T00:47:01.842Z,91.20
2019-04-22T00:52:03.638Z,91.50
2019-04-22T00:54:32.912Z,91.20
2019-04-22T00:57:02.814Z,91.30
2019-04-22T00:59:29.883Z,91.40
2019-04-22T01:02:07.499Z,91.40
2019-04-22T01:04:40.934Z,91.50
2019-04-22T01:07:09.130Z,91.20
2019-04-22T01:09:40.175Z,91.50
2019-04-22T01:12:07.293Z,91.60
2019-04-22T01:14:35.296Z,91.60
2019-04-22T01:17:07.943Z,91.70
2019-04-22T01:19:45.148Z,91.60
2019-04-22T01:22:12.861Z,91.60
2019-04-22T01:24:40.771Z,91.60
2019-04-22T01:27:03.662Z,91.70
2019-04-22T01:29:30.811Z,91.70
2019-04-22T01:31:51.380Z,91.60
2019-04-22T01:34:37.493Z,91.60
2019-04-22T01:37:07.997Z,91.60
2019-04-22T01:39:49.982Z,91.60
2019-04-22T01:42:16.915Z,91.80
2019-04-22T01:44:49.100Z,91.80
2019-04-22T01:47:29.933Z,91.80
2019-04-22T01:49:55.599Z,91.80
2019-04-22T01:52:20.508Z,91.80
2019-04-22T01:54:59.732Z,91.90
2019-04-22T01:57:27.055Z,91.90
2019-04-22T01:59:45.829Z,91.90
2019-04-22T02:02:22.191Z,92.00
2019-04-22T02:05:00.991Z,92.00
2019-04-22T02:07:29.301Z,91.90
2019-04-22T02:09:55.556Z,92.00
2019-04-22T02:12:29.854Z,92.00
2019-04-22T02:14:57.832Z,92.00
2019-04-22T02:17:32.310Z,91.90
2019-04-22T02:20:06.755Z,91.90
2019-04-22T02:22:52.685Z,92.20
2019-04-22T02:25:09.467Z,92.00
2019-04-22T02:27:39.127Z,92.00
2019-04-22T02:29:57.887Z,92.30
2019-04-22T02:35:11.270Z,92.40
2019-04-22T02:37:35.315Z,92.20
2019-04-22T02:40:10.271Z,92.30
2019-04-22T02:42:32.411Z,92.30
2019-04-22T02:45:07.132Z,92.40
2019-04-22T02:47:44.926Z,92.40
2019-04-22T02:50:12.658Z,92.50
2019-04-22T02:55:17.166Z,92.40
2019-04-22T02:57:55.586Z,92.40
2019-04-22T03:00:27.368Z,92.50
2019-04-22T03:03:03.876Z,92.60
2019-04-22T03:07:58.785Z,92.60
2019-04-22T03:10:22.754Z,92.60
2019-04-22T03:13:09.014Z,92.70
2019-04-22T03:15:15.069Z,92.60
2019-04-22T03:17:58.456Z,92.80
2019-04-22T03:20:14.580Z,92.80
2019-04-22T03:22:55.460Z,92.80
2019-04-22T03:27:46.379Z,92.90
2019-04-22T03:30:47.553Z,93.00
2019-04-22T03:33:19.299Z,93.10
2019-04-22T03:35:39.859Z,92.90
2019-04-22T03:40:46.375Z,93.10
2019-04-22T03:53:14.978Z,93.10
2019-04-22T03:55:39.029Z,93.20
2019-04-22T03:58:01.243Z,93.30
2019-04-22T04:05:49.646Z,93.30
2019-04-22T04:08:14.606Z,93.40
2019-04-22T04:10:40.201Z,93.50
2019-04-22T04:13:08.512Z,93.30
2019-04-22T04:18:06.857Z,93.40
2019-04-22T04:23:21.907Z,93.50
2019-04-22T04:33:16.355Z,93.80
2019-04-22T04:35:47.879Z,93.70
2019-04-22T04:38:11.136Z,93.70
2019-04-22T04:40:46.166Z,93.70
2019-04-22T04:43:20.142Z,94.00
2019-04-22T04:48:20.780Z,94.10
2019-04-22T04:51:04.800Z,93.90
2019-04-22T04:53:29.279Z,94.00
2019-04-22T04:55:46.724Z,94.20
2019-04-22T04:58:36.590Z,94.20
2019-04-22T05:05:54.641Z,94.30
2019-04-22T05:08:38.961Z,94.30
2019-04-22T05:13:26.085Z,94.90
2019-04-22T05:16:10.700Z,94.70
2019-04-22T05:18:18.971Z,94.60
2019-04-22T05:23:32.294Z,94.60
2019-04-22T05:25:51.246Z,94.90
2019-04-22T05:28:25.866Z,94.80
2019-04-22T05:30:58.965Z,94.80
2019-04-22T05:33:21.589Z,94.70
2019-04-22T05:35:57.937Z,94.90
2019-04-22T05:40:56.391Z,95.00
2019-04-22T05:43:30.986Z,94.90
2019-04-22T05:46:00.488Z,95.00
2019-04-22T05:48:34.231Z,94.90
2019-04-22T05:50:59.829Z,94.90
2019-04-22T05:53:25.892Z,94.90
2019-04-22T05:56:05.282Z,94.90
2019-04-22T06:03:46.460Z,94.90
2019-04-22T06:06:13.697Z,95.00
2019-04-22T06:08:45.495Z,94.90
2019-04-22T06:11:22.769Z,95.30
2019-04-22T06:13:40.465Z,95.10
2019-04-22T06:16:18.246Z,95.30
2019-04-22T06:18:55.135Z,95.70
2019-04-22T06:21:28.043Z,95.90
2019-04-22T06:23:54.384Z,96.10
2019-04-22T06:26:31.270Z,96.10
2019-04-22T06:28:56.933Z,95.90
2019-04-22T06:31:37.370Z,95.80
2019-04-22T06:34:03.908Z,95.70
2019-04-22T06:36:29.519Z,95.70
2019-04-22T06:38:59.045Z,95.80
2019-04-22T06:41:31.640Z,95.90
2019-04-22T06:44:05.819Z,96.00
2019-04-22T06:46:37.343Z,96.00
2019-04-22T06:49:09.336Z,96.10
2019-04-22T06:51:37.563Z,96.20
2019-04-22T06:54:09.763Z,96.30
2019-04-22T06:56:41.316Z,96.50
2019-04-22T06:59:06.641Z,96.40
2019-04-22T07:01:59.294Z,96.40
2019-04-22T07:04:23.352Z,96.40
2019-04-22T07:07:02.253Z,96.30
2019-04-22T07:12:02.192Z,96.20
2019-04-22T07:14:31.654Z,96.10
2019-04-22T07:17:20.582Z,96.20
2019-04-22T07:19:51.138Z,96.10
2019-04-22T07:22:45.782Z,96.10
2019-04-22T07:25:23.610Z,96.10
2019-04-22T07:27:55.126Z,96.20
2019-04-22T07:35:28.973Z,96.30
2019-04-22T07:37:53.908Z,96.40
2019-04-22T07:40:34.375Z,96.40
2019-04-22T07:43:00.031Z,96.60
2019-04-22T07:45:29.251Z,96.50
2019-04-22T07:48:02.340Z,96.50
2019-04-22T07:50:44.799Z,96.50
2019-04-22T07:53:00.396Z,96.50
2019-04-22T07:55:36.831Z,96.50
2019-04-22T07:58:05.351Z,96.60
2019-04-22T08:03:11.862Z,96.50
2019-04-22T08:05:44.338Z,96.40
2019-04-22T08:08:16.024Z,96.50
2019-04-22T08:10:43.218Z,96.70
2019-04-22T08:13:11.855Z,96.60
2019-04-22T08:15:47.123Z,96.80
2019-04-22T08:18:28.353Z,96.80
2019-04-22T08:20:59.063Z,96.80
2019-04-22T08:23:16.438Z,96.70
2019-04-22T08:25:43.119Z,96.60
2019-04-22T08:28:17.569Z,96.80
2019-04-22T08:30:56.667Z,96.70
2019-04-22T08:33:21.627Z,96.90
2019-04-22T08:36:10.578Z,96.90
2019-04-22T08:38:24.227Z,97.10
2019-04-22T08:41:16.334Z,97.00
2019-04-22T08:43:51.516Z,96.90
2019-04-22T08:46:17.077Z,97.00
2019-04-22T08:48:48.401Z,96.90
2019-04-22T08:51:16.842Z,96.80
2019-04-22T08:53:48.171Z,96.90
2019-04-22T08:56:28.029Z,96.90
2019-04-22T08:58:52.400Z,96.80
2019-04-22T09:01:20.797Z,96.70
2019-04-22T09:03:50.677Z,96.60
2019-04-22T09:11:22.427Z,96.40
2019-04-22T09:13:50.697Z,96.40
2019-04-22T09:16:29.901Z,96.40
2019-04-22T09:24:00.121Z,96.30
2019-04-22T09:26:30.621Z,96.20
2019-04-22T09:31:28.980Z,96.20
2019-04-22T09:33:53.135Z,96.20
2019-04-22T09:39:01.690Z,96.10
2019-04-22T09:41:33.349Z,96.00
2019-04-22T09:44:05.645Z,95.80
2019-04-22T09:46:35.940Z,95.90
2019-04-22T09:49:06.337Z,95.90
2019-04-22T09:51:38.932Z,94.80
2019-04-22T09:56:37.465Z,95.20
2019-04-22T09:59:07.670Z,94.40
2019-04-22T10:01:34.865Z,94.30
2019-04-22T10:04:07.230Z,94.60
2019-04-22T10:06:36.691Z,95.00
2019-04-22T10:14:23.849Z,93.60
2019-04-22T10:16:43.757Z,93.40
2019-04-22T10:19:15.008Z,93.40
2019-04-22T10:24:16.669Z,92.50
2019-04-22T10:26:57.121Z,92.50
2019-04-22T10:29:18.361Z,92.60
2019-04-22T10:31:49.518Z,92.50
2019-04-22T10:34:09.246Z,92.20
2019-04-22T10:36:25.509Z,91.30
2019-04-22T10:38:54.770Z,90.70
2019-04-22T10:41:23.710Z,91.70
2019-04-22T10:43:52.971Z,91.40
2019-04-22T10:46:22.267Z,90.70
2019-04-22T10:48:52.652Z,90.60
2019-04-22T10:51:22.342Z,90.90
2019-04-22T10:53:51.380Z,90.90
2019-04-22T10:56:21.031Z,90.30
2019-04-22T10:58:50.824Z,85.40
2019-04-22T11:01:21.302Z,88.20
2019-04-22T11:03:51.104Z,87.10
2019-04-22T11:06:21.325Z,85.40
2019-04-22T11:08:57.414Z,85.10
2019-04-22T11:11:32.506Z,85.30
2019-04-22T11:13:51.962Z,86.10
2019-04-22T11:16:21.399Z,84.90
2019-04-22T11:47:05.604Z,72.70
2019-04-22T11:49:36.116Z,73.10
2019-04-22T11:52:08.447Z,74.00
2019-04-22T11:54:36.894Z,73.10
2019-04-22T11:57:07.450Z,75.10
2019-04-22T11:59:36.612Z,75.90
2019-04-22T12:02:06.723Z,73.40
2019-04-22T12:04:36.194Z,70.40
2019-04-22T12:07:05.909Z,71.30
2019-04-22T12:09:35.325Z,70.10
2019-04-22T12:12:05.759Z,68.90
2019-04-22T12:14:36.221Z,70.00
2019-04-22T12:17:07.679Z,66.50
2019-04-22T12:19:37.925Z,66.80
2019-04-22T12:22:07.152Z,67.70
2019-04-22T12:24:36.571Z,69.10
2019-04-22T12:27:08.410Z,68.90
2019-04-22T12:29:38.662Z,69.50
2019-04-22T12:32:09.338Z,69.90
2019-04-22T12:34:39.680Z,69.90
2019-04-22T12:37:08.870Z,65.60
2019-04-22T12:39:39.150Z,63.20
2019-04-22T12:42:09.028Z,66.00
2019-04-22T12:44:40.515Z,63.00
2019-04-22T12:47:09.850Z,65.80
2019-04-22T12:49:42.328Z,65.60
2019-04-22T12:52:21.939Z,67.20
2019-04-22T12:54:40.854Z,66.00
2019-04-22T12:57:10.403Z,68.10
2019-04-22T12:59:39.800Z,64.30
2019-04-22T13:02:09.157Z,65.30
2019-04-22T13:04:38.540Z,63.30
2019-04-22T13:07:07.964Z,63.80
2019-04-22T13:09:37.367Z,64.60
2019-04-22T13:12:06.860Z,64.60
2019-04-22T13:14:36.912Z,63.90
2019-04-22T13:17:06.275Z,63.00
2019-04-22T13:19:36.145Z,63.30
2019-04-22T13:22:06.964Z,64.60
2019-04-22T13:24:36.234Z,60.60
2019-04-22T13:27:06.576Z,61.10
2019-04-22T13:29:37.208Z,62.50
2019-04-22T13:32:06.894Z,63.20
2019-04-22T13:34:42.327Z,61.90
2019-04-22T13:37:07.411Z,62.80
2019-04-22T13:39:36.817Z,63.60
2019-04-22T13:42:11.413Z,59.50
2019-04-22T13:44:37.712Z,61.70
2019-04-22T13:47:24.066Z,61.20
2019-04-22T13:54:24.315Z,60.90
2019-04-22T13:57:29.431Z,58.90
2019-04-22T13:59:45.964Z,59.30
2019-04-22T14:02:42.604Z,58.10
2019-04-22T14:05:14.730Z,59.40
2019-04-22T14:07:43.882Z,57.30
2019-04-22T14:10:14.199Z,58.20
2019-04-22T14:12:44.585Z,58.50
2019-04-22T14:15:15.960Z,57.40
2019-04-22T14:17:45.399Z,58.70
2019-04-22T14:20:15.183Z,59.20
2019-04-22T14:22:44.477Z,59.80
2019-04-22T14:25:14.603Z,60.30
2019-04-22T14:27:51.359Z,57.60
2019-04-22T14:30:16.772Z,59.40
2019-04-22T14:32:46.011Z,58.10
2019-04-22T14:35:15.382Z,58.90
2019-04-22T14:37:45.740Z,58.70
2019-04-22T14:40:18.375Z,58.40
2019-04-22T14:43:06.015Z,59.60
2019-04-22T14:45:53.484Z,59.60
2019-04-22T14:48:10.991Z,58.10
2019-04-22T14:50:42.266Z,57.90
2019-04-22T14:53:11.304Z,57.80
2019-04-22T14:55:25.871Z,56.60
2019-04-22T14:57:52.884Z,57.00
2019-04-22T15:00:26.318Z,56.80
2019-04-22T15:02:57.424Z,55.70
2019-04-22T15:05:28.159Z,55.50
2019-04-22T15:07:57.384Z,54.90
2019-04-22T15:10:28.124Z,54.60
2019-04-22T15:13:00.543Z,56.10
2019-04-22T15:15:40.488Z,56.40
2019-04-22T15:18:11.801Z,55.40
2019-04-22T15:20:56.722Z,55.30
2019-04-22T15:23:26.729Z,55.70
2019-04-22T15:25:56.797Z,56.20
2019-04-22T15:28:27.106Z,57.50
2019-04-22T15:30:57.453Z,54.30
2019-04-22T15:33:27.732Z,52.80
2019-04-22T15:35:56.874Z,52.90
2019-04-22T15:38:26.211Z,54.60
2019-04-22T15:40:56.651Z,53.50
2019-04-22T15:43:29.721Z,55.70
2019-04-22T15:46:01.432Z,55.00
2019-04-22T15:48:29.185Z,54.00
2019-04-22T15:50:58.633Z,54.00
2019-04-22T15:53:27.619Z,54.20
2019-04-22T15:55:56.755Z,53.20
2019-04-22T15:58:25.857Z,51.60
2019-04-22T16:01:06.534Z,54.90
2019-04-22T16:03:26.863Z,52.80
2019-04-22T16:05:56.046Z,53.10
2019-04-22T16:08:24.922Z,52.20
2019-04-22T16:10:53.994Z,54.40
2019-04-22T16:13:25.533Z,52.10
2019-04-22T16:15:54.443Z,55.30
2019-04-22T16:18:24.334Z,55.00
2019-04-22T16:20:54.350Z,54.80
2019-04-22T16:23:32.175Z,55.10
2019-04-22T16:26:26.527Z,52.40
2019-04-22T16:28:57.591Z,52.10
2019-04-22T16:31:27.122Z,52.30
2019-04-22T16:33:56.364Z,54.10
2019-04-22T16:36:26.809Z,53.60
2019-04-22T16:38:57.095Z,54.40
2019-04-22T16:41:26.467Z,54.40
2019-04-22T16:43:56.285Z,55.20
2019-04-22T16:46:25.654Z,54.30
2019-04-22T16:48:55.874Z,54.60
2019-04-22T16:51:25.265Z,53.50
2019-04-22T16:53:54.107Z,54.50
2019-04-22T16:56:23.098Z,52.60
2019-04-22T16:58:52.810Z,53.80
2019-04-22T17:01:59.221Z,53.80
2019-04-22T17:04:38.643Z,55.60
2019-04-22T17:07:11.845Z,55.10
2019-04-22T17:09:41.684Z,53.30
2019-04-22T17:12:11.989Z,52.80
2019-04-22T17:14:56.789Z,54.20
2019-04-22T17:17:22.349Z,54.20
2019-04-22T17:19:51.448Z,56.10
2019-04-22T17:22:21.620Z,57.40
2019-04-22T17:24:50.762Z,55.80
2019-04-22T17:27:20.230Z,53.90
2019-04-22T17:29:50.586Z,55.00
2019-04-22T17:32:22.986Z,54.80
2019-04-22T17:34:51.741Z,56.00
2019-04-22T17:37:26.553Z,55.90
2019-04-22T17:40:11.675Z,55.60
2019-04-22T17:42:42.482Z,56.40
2019-04-22T17:45:24.315Z,55.00
2019-04-22T17:48:14.146Z,56.00
2019-04-22T17:50:46.288Z,55.50
2019-04-22T17:53:22.952Z,56.80
2019-04-22T17:55:49.479Z,56.20
2019-04-22T17:58:23.098Z,56.00
2019-04-22T18:00:50.462Z,56.70
2019-04-22T18:03:11.835Z,56.40
2019-04-22T18:05:38.366Z,54.80
2019-04-22T18:08:17.706Z,56.90
2019-04-22T18:10:49.170Z,56.70
2019-04-22T18:13:28.215Z,55.30
2019-04-22T18:15:54.897Z,55.80
2019-04-22T18:18:23.083Z,56.30
2019-04-22T18:20:45.743Z,57.90
2019-04-22T18:23:11.957Z,56.60
2019-04-22T18:25:57.643Z,56.00
2019-04-22T18:28:30.326Z,58.00
2019-04-22T18:30:52.983Z,57.70
2019-04-22T18:33:23.939Z,56.00
2019-04-22T18:35:58.386Z,56.80
2019-04-22T18:38:44.383Z,57.60
2019-04-22T18:41:03.520Z,57.90
2019-04-22T18:43:32.885Z,58.80
2019-04-22T18:46:06.504Z,58.00
2019-04-22T18:48:29.711Z,57.40
2019-04-22T18:54:28.857Z,57.80
2019-04-22T18:57:02.561Z,59.50
2019-04-22T18:59:22.559Z,58.00
2019-04-22T19:01:46.074Z,59.10
2019-04-22T19:04:24.318Z,59.60
2019-04-22T19:07:15.256Z,59.80
2019-04-22T19:09:41.435Z,59.50
2019-04-22T19:14:45.377Z,59.90
2019-04-22T19:17:17.389Z,59.80
2019-04-22T19:19:44.197Z,60.20
2019-04-22T19:22:09.733Z,58.80
2019-04-22T19:24:39.818Z,59.50
2019-04-22T19:27:15.600Z,58.40
2019-04-22T19:29:48.784Z,59.10
2019-04-22T19:32:13.001Z,58.40
2019-04-22T19:34:46.404Z,57.70
2019-04-22T19:37:13.350Z,58.80
2019-04-22T19:39:52.559Z,60.30
2019-04-22T19:42:25.562Z,59.30
2019-04-22T19:44:53.095Z,59.00
2019-04-22T19:47:38.653Z,58.80
2019-04-22T19:49:57.989Z,58.10
2019-04-22T19:52:24.467Z,58.90
2019-04-22T19:54:54.997Z,58.80
2019-04-22T19:57:24.940Z,59.50
2019-04-22T19:59:51.168Z,56.90
2019-04-22T20:02:37.448Z,58.00
2019-04-22T20:05:29.725Z,58.30
2019-04-22T20:07:50.996Z,58.10
2019-04-22T20:10:28.127Z,58.80
2019-04-22T20:12:53.065Z,58.00
2019-04-22T20:15:25.921Z,58.50
2019-04-22T20:20:32.939Z,57.20
2019-04-22T20:22:57.644Z,57.00
2019-04-22T20:25:27.932Z,56.80
2019-04-22T20:28:06.174Z,57.30
2019-04-22T20:30:37.930Z,54.70
2019-04-22T20:33:19.049Z,56.60
2019-04-22T20:36:14.275Z,56.80
2019-04-22T20:38:40.266Z,56.70
2019-04-22T20:41:08.346Z,56.90
2019-04-22T20:43:51.487Z,55.90
2019-04-22T20:46:14.921Z,55.90
2019-04-22T20:48:48.232Z,56.40
2019-04-22T20:51:19.714Z,56.90
2019-04-22T20:54:07.458Z,57.60
2019-04-22T20:56:35.662Z,56.40
2019-04-22T20:59:08.306Z,57.00
2019-04-22T21:01:41.441Z,57.10
2019-04-22T21:03:57.644Z,58.30
2019-04-22T21:06:36.862Z,57.50
2019-04-22T21:09:13.515Z,57.50
2019-04-22T21:11:38.479Z,58.60
2019-04-22T21:14:12.211Z,58.60
2019-04-22T21:16:54.742Z,58.90
2019-04-22T21:19:29.745Z,59.20
2019-04-22T21:21:50.234Z,58.90
2019-04-22T21:24:20.285Z,59.40
2019-04-22T21:26:47.104Z,59.90
2019-04-22T21:29:17.339Z,59.80
2019-04-22T21:31:56.120Z,60.30
2019-04-22T21:34:20.628Z,60.50
2019-04-22T21:37:02.591Z,60.80
2019-04-22T21:39:23.881Z,60.60
2019-04-22T21:41:51.442Z,61.20
2019-04-22T21:44:26.714Z,61.40
2019-04-22T21:47:03.326Z,61.90
2019-04-22T21:49:31.083Z,62.00
2019-04-22T21:52:01.214Z,61.30
2019-04-22T21:54:34.729Z,62.80
2019-04-22T21:57:35.612Z,62.30
2019-04-22T21:59:47.090Z,62.10
2019-04-22T22:02:39.191Z,61.50
2019-04-22T22:04:48.038Z,60.60
2019-04-22T22:07:09.727Z,60.70
2019-04-22T22:09:54.175Z,61.30
2019-04-22T22:12:24.245Z,60.80
2019-04-22T22:15:00.378Z,61.30
2019-04-22T22:17:25.248Z,61.50
2019-04-22T22:19:52.907Z,60.50
2019-04-22T22:22:42.206Z,61.50
2019-04-22T22:24:57.265Z,61.60
2019-04-22T22:27:34.184Z,61.00
2019-04-22T22:32:33.701Z,61.10
2019-04-22T22:35:03.748Z,61.50
2019-04-22T22:37:22.515Z,60.80
2019-04-22T22:39:51.253Z,60.60
2019-04-22T22:42:22.497Z,60.90
2019-04-22T22:44:48.725Z,61.40
2019-04-22T22:47:30.351Z,60.60
2019-04-22T22:50:07.701Z,60.30
2019-04-22T22:55:10.806Z,59.40
2019-04-22T22:57:39.627Z,60.40
2019-04-22T23:00:08.481Z,59.80
2019-04-22T23:02:59.535Z,59.10
2019-04-22T23:05:09.793Z,59.70
2019-04-22T23:07:42.445Z,58.70
2019-04-22T23:10:14.410Z,59.20
2019-04-22T23:13:01.613Z,59.40
2019-04-22T23:15:08.813Z,59.40
2019-04-22T23:17:26.082Z,58.80
2019-04-22T23:19:56.103Z,59.20
2019-04-22T23:22:31.061Z,60.10
2019-04-22T23:25:19.170Z,60.00
2019-04-22T23:27:44.481Z,59.60
2019-04-22T23:30:36.223Z,59.80
2019-04-22T23:33:18.904Z,60.10
2019-04-22T23:35:49.505Z,59.00
2019-04-22T23:38:23.157Z,60.30
2019-04-22T23:40:55.564Z,59.80
2019-04-22T23:43:34.149Z,59.10
2019-04-22T23:46:02.231Z,59.10
2019-04-22T23:48:26.001Z,59.60
2019-04-22T23:51:03.137Z,59.80
2019-04-22T23:53:58.076Z,60.50
2019-04-22T23:56:06.110Z,60.50
